Time;durP1;ratioP1;P1;durP2;ratioP2;P2;SDS_P1;SDS_P2;PMS_P1;PMS_P2;Temp;Humidity;BMP_temperature;BMP_pressure;BME280_temperature;BME280_humidity;BME280_pressure;Samples;Min_cycle;Max_cycle;Signal;HPM_P1;HPM_P2
2022/08/23 00:00:46;;;;;;;8.50;4.90;;;17.40;82.30;;;;;;4931598;29;20917;-68
2022/08/23 00:03:12;;;;;;;7.67;4.77;;;17.40;82.50;;;;;;4916624;29;20327;-68
2022/08/23 00:05:38;;;;;;;11.00;5.27;;;17.40;82.50;;;;;;4912307;28;20081;-68
2022/08/23 00:08:04;;;;;;;9.43;5.77;;;17.40;82.50;;;;;;4911751;29;20039;-68
2022/08/23 00:10:30;;;;;;;10.90;4.90;;;17.30;82.60;;;;;;4929337;29;20752;-68
2022/08/23 00:12:56;;;;;;;9.43;5.13;;;17.30;82.80;;;;;;4921771;29;20287;-68
2022/08/23 00:15:22;;;;;;;10.67;5.33;;;17.30;82.90;;;;;;4926384;28;20294;-68
2022/08/23 00:17:48;;;;;;;10.57;5.77;;;17.30;83.10;;;;;;4912448;28;20035;-68
2022/08/23 00:20:17;;;;;;;8.40;4.40;;;17.30;83.40;;;;;;4902042;29;20043;-68
2022/08/23 00:22:43;;;;;;;7.47;5.07;;;17.30;83.50;;;;;;4923308;29;20035;-69
2022/08/23 00:25:11;;;;;;;6.67;4.47;;;17.20;83.40;;;;;;4928071;29;20409;-68
2022/08/23 00:27:37;;;;;;;8.07;5.30;;;17.30;83.50;;;;;;4933918;28;20042;-68
2022/08/23 00:30:06;;;;;;;9.63;4.40;;;17.20;83.80;;;;;;4927630;29;20310;-68
2022/08/23 00:32:35;;;;;;;11.50;4.70;;;17.20;84.00;;;;;;4929402;29;20375;-68
2022/08/23 00:35:02;;;;;;;9.90;4.50;;;17.20;83.80;;;;;;4926157;28;20290;-68
2022/08/23 00:37:30;;;;;;;8.27;4.70;;;17.20;84.00;;;;;;4912026;28;20284;-68
2022/08/23 00:39:56;;;;;;;12.23;4.93;;;17.20;83.90;;;;;;4930049;28;20279;-69
2022/08/23 00:48:08;;;;;;;9.30;5.13;;;17.20;84.00;;;;;;4928733;28;20058;-68
2022/08/23 00:50:44;;;;;;;12.13;5.17;;;17.10;83.90;;;;;;4919415;29;20675;-68
2022/08/23 00:53:19;;;;;;;13.33;6.33;;;17.10;84.20;;;;;;4931875;28;20036;-68
2022/08/23 00:55:48;;;;;;;11.20;5.07;;;17.20;84.20;;;;;;4933191;28;20329;-68
2022/08/23 00:58:18;;;;;;;11.53;5.23;;;17.20;84.10;;;;;;4933181;29;20360;-68
2022/08/23 01:00:45;;;;;;;11.87;5.17;;;17.10;84.30;;;;;;4934389;29;20279;-68
2022/08/23 01:03:12;;;;;;;8.23;5.40;;;17.10;84.30;;;;;;4934743;29;20374;-68
2022/08/23 01:06:01;;;;;;;9.73;6.10;;;17.20;84.30;;;;;;4932300;28;20727;-68
2022/08/23 01:08:30;;;;;;;7.60;5.40;;;17.20;84.30;;;;;;4925962;28;20299;-68
2022/08/23 01:11:22;;;;;;;10.47;5.47;;;17.10;84.30;;;;;;4926076;29;20330;-68
2022/08/23 01:13:54;;;;;;;9.13;5.63;;;17.10;84.50;;;;;;4902667;28;20294;-68
2022/08/23 01:16:32;;;;;;;11.17;5.53;;;17.10;84.60;;;;;;4920807;29;20323;-68
2022/08/23 01:19:00;;;;;;;8.33;5.20;;;17.00;84.60;;;;;;4914184;28;21053;-68
2022/08/23 01:21:45;;;;;;;10.17;5.67;;;17.00;84.60;;;;;;4914664;28;20772;-68
2022/08/23 01:24:12;;;;;;;11.65;5.65;;;17.00;84.90;;;;;;4927737;29;20793;-68
2022/08/23 01:26:38;;;;;;;10.27;5.83;;;16.90;84.70;;;;;;4932740;29;20393;-68
2022/08/23 01:29:06;;;;;;;13.53;6.50;;;16.90;84.90;;;;;;4899398;29;20298;-68
2022/08/23 01:31:33;;;;;;;10.20;5.70;;;16.90;85.00;;;;;;4930194;28;20046;-68
2022/08/23 01:34:08;;;;;;;8.00;5.60;;;16.90;85.10;;;;;;4929335;29;20307;-68
2022/08/23 01:36:35;;;;;;;10.40;5.70;;;16.80;85.20;;;;;;4914012;29;20287;-68
2022/08/23 01:39:03;;;;;;;10.23;5.80;;;16.80;85.30;;;;;;4920219;29;20350;-68
2022/08/23 01:41:29;;;;;;;9.33;5.17;;;16.80;85.60;;;;;;4918649;28;20636;-68
2022/08/23 01:43:54;;;;;;;12.00;5.60;;;16.70;85.50;;;;;;4920340;29;20298;-68
2022/08/23 01:46:24;;;;;;;7.43;5.37;;;16.70;85.60;;;;;;4905352;28;20453;-68
2022/08/23 01:48:50;;;;;;;11.50;7.10;;;16.70;85.70;;;;;;4915289;29;20035;-68
2022/08/23 01:51:19;;;;;;;10.03;6.37;;;16.60;85.80;;;;;;4916331;28;20405;-68
2022/08/23 01:53:48;;;;;;;11.43;6.43;;;16.60;85.90;;;;;;4925077;28;20691;-68
2022/08/23 01:56:19;;;;;;;14.40;6.37;;;16.60;86.20;;;;;;4927730;29;20311;-68
2022/08/23 01:58:46;;;;;;;10.53;6.00;;;16.60;86.20;;;;;;4910666;29;20346;-68
2022/08/23 02:01:11;;;;;;;9.70;5.83;;;16.60;86.30;;;;;;4928568;29;20296;-68
2022/08/23 02:03:37;;;;;;;10.57;6.30;;;16.50;86.50;;;;;;4918248;29;20697;-68
2022/08/23 02:06:03;;;;;;;10.73;6.73;;;16.50;86.40;;;;;;4924659;29;20504;-68
2022/08/23 02:11:20;;;;;;;10.67;7.03;;;16.50;86.90;;;;;;4922367;29;20315;-68
2022/08/23 02:13:47;;;;;;;9.20;6.07;;;16.50;86.80;;;;;;4929598;29;20810;-68
2022/08/23 02:16:24;;;;;;;12.17;6.77;;;16.50;87.10;;;;;;4920323;29;20672;-68
2022/08/23 02:18:50;;;;;;;10.10;6.97;;;16.50;87.20;;;;;;4922798;29;20287;-68
2022/08/23 02:21:16;;;;;;;8.17;6.87;;;16.50;87.10;;;;;;4929046;29;20291;-68
2022/08/23 02:23:42;;;;;;;12.50;7.43;;;16.50;87.30;;;;;;4928883;29;20656;-68
2022/08/23 02:26:08;;;;;;;10.83;7.37;;;16.50;87.40;;;;;;4905839;29;20048;-68
2022/08/23 02:28:34;;;;;;;12.27;7.60;;;16.40;87.40;;;;;;4925561;29;20063;-69
2022/08/23 02:30:59;;;;;;;13.13;7.97;;;16.40;87.40;;;;;;4929104;29;20416;-68
2022/08/23 02:33:25;;;;;;;13.87;7.67;;;16.40;87.50;;;;;;4926114;29;20107;-68
2022/08/23 02:35:51;;;;;;;14.90;8.43;;;16.40;87.60;;;;;;4917353;29;20032;-68
2022/08/23 02:38:17;;;;;;;14.20;8.10;;;16.40;87.50;;;;;;4916374;29;20087;-68
2022/08/23 02:40:43;;;;;;;11.37;8.73;;;16.40;87.70;;;;;;4927427;29;20047;-68
2022/08/23 02:43:10;;;;;;;12.60;8.13;;;16.40;87.70;;;;;;4915623;29;20818;-68
2022/08/23 02:45:36;;;;;;;15.40;8.47;;;16.40;87.80;;;;;;4928071;29;20683;-68
2022/08/23 02:48:03;;;;;;;11.77;8.30;;;16.40;87.80;;;;;;4926221;29;20298;-69
2022/08/23 02:50:29;;;;;;;12.73;8.93;;;16.40;87.90;;;;;;4926770;29;20828;-69
2022/08/23 02:52:57;;;;;;;13.77;8.10;;;16.40;87.80;;;;;;4921500;29;20292;-68
2022/08/23 02:55:23;;;;;;;13.57;8.77;;;16.30;87.90;;;;;;4927343;29;20303;-69
2022/08/23 02:57:49;;;;;;;13.30;9.70;;;16.30;87.80;;;;;;4917200;29;20304;-69
2022/08/23 03:00:16;;;;;;;12.73;8.70;;;16.30;87.90;;;;;;4912920;29;20281;-69
2022/08/23 03:02:42;;;;;;;14.20;8.87;;;16.30;87.90;;;;;;4931756;29;20045;-69
2022/08/23 03:05:09;;;;;;;14.40;9.47;;;16.30;88.20;;;;;;4904134;29;20286;-69
2022/08/23 03:07:35;;;;;;;15.53;9.57;;;16.30;88.10;;;;;;4925770;29;20283;-68
2022/08/23 03:10:01;;;;;;;12.93;9.23;;;16.20;88.00;;;;;;4929321;29;20831;-69
2022/08/23 03:12:27;;;;;;;12.30;8.80;;;16.20;88.00;;;;;;4933100;29;20303;-68
2022/08/23 03:14:53;;;;;;;13.13;8.57;;;16.20;88.10;;;;;;4894656;29;20296;-68
2022/08/23 03:17:19;;;;;;;12.23;9.50;;;16.20;88.20;;;;;;4906582;29;20043;-68
2022/08/23 03:19:45;;;;;;;13.33;8.93;;;16.10;88.10;;;;;;4902432;29;20206;-69
2022/08/23 03:22:10;;;;;;;14.07;9.13;;;16.10;88.10;;;;;;4922871;29;20299;-68
2022/08/23 03:24:36;;;;;;;13.60;9.53;;;16.10;87.90;;;;;;4893938;29;20521;-68
2022/08/23 03:27:03;;;;;;;16.60;9.83;;;16.10;88.00;;;;;;4919238;29;20055;-69
2022/08/23 03:29:30;;;;;;;13.63;9.27;;;16.00;88.30;;;;;;4934618;29;20051;-68
2022/08/23 03:31:57;;;;;;;13.77;9.50;;;16.00;88.30;;;;;;4911785;29;20288;-68
2022/08/23 03:34:23;;;;;;;15.40;8.90;;;16.00;88.30;;;;;;4923269;29;20482;-69
2022/08/23 03:36:48;;;;;;;15.97;10.23;;;16.00;88.30;;;;;;4924468;29;20382;-68
2022/08/23 03:39:15;;;;;;;15.90;9.30;;;15.90;88.30;;;;;;4905563;29;20102;-69
2022/08/23 03:41:41;;;;;;;14.90;9.90;;;15.90;88.30;;;;;;4908014;29;20044;-69
2022/08/23 03:44:06;;;;;;;13.07;9.87;;;15.90;88.50;;;;;;4923527;29;20800;-69
2022/08/23 03:46:32;;;;;;;13.80;9.87;;;15.90;88.40;;;;;;4906856;29;20039;-68
2022/08/23 03:49:00;;;;;;;15.67;9.43;;;15.80;88.50;;;;;;4925600;29;20043;-68
2022/08/23 03:51:27;;;;;;;13.33;9.73;;;15.80;88.50;;;;;;4905225;29;20324;-68
2022/08/23 03:53:53;;;;;;;13.30;9.77;;;15.80;88.50;;;;;;4921786;29;20776;-68
2022/08/23 03:56:33;;;;;;;12.67;9.27;;;15.80;88.40;;;;;;4923451;29;20530;-68
2022/08/23 03:59:03;;;;;;;15.07;10.73;;;15.80;88.80;;;;;;4911500;29;20299;-68
2022/08/23 04:01:28;;;;;;;15.80;10.13;;;15.70;88.70;;;;;;4927644;29;20303;-68
2022/08/23 04:03:58;;;;;;;15.23;10.53;;;15.70;88.70;;;;;;4907755;29;20311;-68
2022/08/23 04:06:24;;;;;;;14.77;10.43;;;15.70;88.70;;;;;;4916566;29;20110;-69
2022/08/23 04:08:52;;;;;;;13.30;9.83;;;15.70;88.60;;;;;;4926046;29;20292;-68
2022/08/23 04:11:17;;;;;;;13.70;9.77;;;15.70;88.70;;;;;;4926355;29;20307;-68
2022/08/23 04:13:43;;;;;;;16.97;11.57;;;15.60;88.70;;;;;;4924943;29;20355;-68
2022/08/23 04:16:09;;;;;;;15.47;10.50;;;15.60;88.90;;;;;;4906428;29;20564;-68
2022/08/23 04:18:35;;;;;;;17.67;10.80;;;15.60;89.00;;;;;;4920709;29;20043;-68
2022/08/23 04:21:06;;;;;;;14.83;10.27;;;15.60;88.90;;;;;;4925012;29;20071;-69
2022/08/23 04:23:32;;;;;;;15.30;11.37;;;15.60;89.10;;;;;;4928073;29;20284;-68
2022/08/23 04:25:58;;;;;;;14.00;11.47;;;15.60;89.20;;;;;;4929287;29;20302;-68
2022/08/23 04:28:23;;;;;;;18.67;11.43;;;15.60;89.40;;;;;;4922769;29;20100;-69
2022/08/23 04:30:50;;;;;;;14.97;11.47;;;15.60;89.20;;;;;;4912081;29;20066;-68
2022/08/23 04:33:17;;;;;;;15.37;11.07;;;15.60;89.50;;;;;;4931315;29;20042;-69
2022/08/23 04:35:42;;;;;;;15.73;10.33;;;15.50;89.50;;;;;;4914369;29;20295;-69
2022/08/23 04:38:08;;;;;;;13.20;10.30;;;15.50;89.40;;;;;;4930753;29;20291;-69
2022/08/23 04:43:19;;;;;;;16.87;10.37;;;15.50;89.40;;;;;;4912858;29;20295;-68
2022/08/23 04:45:45;;;;;;;13.70;10.40;;;15.50;89.50;;;;;;4913293;29;20296;-68
2022/08/23 04:48:12;;;;;;;15.17;11.33;;;15.50;89.50;;;;;;4895431;29;20281;-68
2022/08/23 04:50:39;;;;;;;15.07;9.87;;;15.50;89.40;;;;;;4915718;29;20303;-69
2022/08/23 04:53:06;;;;;;;15.00;10.60;;;15.50;89.40;;;;;;4926837;29;20307;-69
2022/08/23 04:55:32;;;;;;;14.97;11.17;;;15.50;89.40;;;;;;4913923;29;20304;-68
2022/08/23 04:57:57;;;;;;;14.13;10.60;;;15.50;89.50;;;;;;4937019;29;20780;-68
2022/08/23 05:00:23;;;;;;;15.77;11.00;;;15.60;89.40;;;;;;4912749;29;20047;-69
2022/08/23 05:02:49;;;;;;;14.90;11.10;;;15.60;89.40;;;;;;4931376;29;20107;-68
2022/08/23 05:05:15;;;;;;;13.17;11.13;;;15.60;89.40;;;;;;4913135;29;20048;-68
2022/08/23 05:07:41;;;;;;;15.27;11.37;;;15.60;89.40;;;;;;4923879;29;20708;-68
2022/08/23 05:10:11;;;;;;;14.27;9.93;;;15.70;89.40;;;;;;4911701;29;20699;-69
2022/08/23 05:12:38;;;;;;;18.40;12.43;;;15.70;89.30;;;;;;4928860;29;20082;-69
2022/08/23 05:15:04;;;;;;;19.30;11.43;;;15.80;89.10;;;;;;4911635;29;20304;-69
2022/08/23 05:17:30;;;;;;;14.23;12.47;;;15.80;89.00;;;;;;4912539;29;20287;-69
2022/08/23 05:19:56;;;;;;;15.73;12.17;;;15.90;88.90;;;;;;4923202;29;20295;-69
2022/08/23 05:22:21;;;;;;;17.83;12.30;;;16.00;88.90;;;;;;4930154;29;20449;-69
2022/08/23 05:24:47;;;;;;;16.80;12.33;;;16.10;88.90;;;;;;4906404;29;20051;-69
2022/08/23 05:27:13;;;;;;;16.70;12.10;;;16.10;89.00;;;;;;4905815;29;20052;-69
2022/08/23 05:29:39;;;;;;;18.70;12.60;;;16.20;88.80;;;;;;4912966;29;20047;-69
2022/08/23 05:32:05;;;;;;;17.60;12.03;;;16.30;88.60;;;;;;4927910;29;20335;-69
2022/08/23 05:34:31;;;;;;;18.33;12.50;;;16.40;88.70;;;;;;4914223;29;20437;-69
2022/08/23 05:36:57;;;;;;;15.53;12.47;;;16.50;88.70;;;;;;4910725;29;20370;-69
2022/08/23 05:39:23;;;;;;;16.53;12.47;;;16.60;88.80;;;;;;4911307;29;20047;-69
2022/08/23 05:41:48;;;;;;;17.10;12.40;;;16.70;88.70;;;;;;4913466;29;20306;-69
2022/08/23 05:44:14;;;;;;;18.03;12.60;;;16.80;88.40;;;;;;4896213;29;20036;-69
2022/08/23 05:46:40;;;;;;;15.07;11.53;;;16.80;88.20;;;;;;4912725;29;20083;-69
2022/08/23 05:49:07;;;;;;;15.60;12.20;;;16.90;88.40;;;;;;4917914;29;20054;-69
2022/08/23 05:51:34;;;;;;;15.67;12.50;;;16.90;88.40;;;;;;4911247;29;20306;-69
2022/08/23 05:54:04;;;;;;;16.47;12.10;;;17.00;88.30;;;;;;4927745;29;20406;-71
2022/08/23 05:56:33;;;;;;;15.77;11.73;;;17.10;88.40;;;;;;4924676;29;20306;-69
2022/08/23 05:59:04;;;;;;;16.10;12.40;;;17.20;88.10;;;;;;4928912;29;20287;-69
2022/08/23 06:01:30;;;;;;;13.73;11.70;;;17.30;87.80;;;;;;4923427;29;20315;-69
2022/08/23 06:04:01;;;;;;;18.93;13.10;;;17.40;87.60;;;;;;4922861;29;20318;-69
2022/08/23 06:06:27;;;;;;;14.80;11.70;;;17.50;87.30;;;;;;4903904;29;20680;-69
2022/08/23 06:08:53;;;;;;;15.03;11.93;;;17.60;87.00;;;;;;4912629;29;20791;-69
2022/08/23 06:11:25;;;;;;;15.67;12.73;;;17.70;86.90;;;;;;4924354;29;20312;-69
2022/08/23 06:13:57;;;;;;;14.20;11.77;;;17.90;86.60;;;;;;4922042;29;20090;-69
2022/08/23 06:16:35;;;;;;;13.93;11.50;;;17.90;86.20;;;;;;4924487;29;20351;-69
2022/08/23 06:19:02;;;;;;;14.60;11.93;;;18.00;85.70;;;;;;4919329;29;20280;-69
2022/08/23 06:21:28;;;;;;;16.47;12.17;;;18.10;85.60;;;;;;4909986;29;20302;-69
2022/08/23 06:23:54;;;;;;;14.87;10.87;;;18.20;85.20;;;;;;4928237;29;20374;-69
2022/08/23 06:26:26;;;;;;;17.60;10.70;;;18.30;84.70;;;;;;4927003;29;20302;-69
2022/08/23 06:28:54;;;;;;;15.80;11.67;;;18.30;84.50;;;;;;4928234;29;20365;-69
2022/08/23 06:34:09;;;;;;;13.70;10.37;;;18.40;84.20;;;;;;4926440;29;20403;-69
2022/08/23 06:36:36;;;;;;;13.63;11.10;;;18.50;83.90;;;;;;4910946;29;20295;-69
2022/08/23 06:39:04;;;;;;;15.50;10.70;;;18.60;83.20;;;;;;4904556;29;20280;-69
2022/08/23 06:41:29;;;;;;;13.67;9.93;;;18.60;83.30;;;;;;4924471;29;20288;-69
2022/08/23 06:43:55;;;;;;;13.73;10.40;;;18.70;83.00;;;;;;4926158;29;20347;-69
2022/08/23 06:46:24;;;;;;;12.60;10.10;;;18.80;82.70;;;;;;4905709;29;20053;-70
2022/08/23 06:48:52;;;;;;;13.43;10.20;;;18.90;82.60;;;;;;4906051;29;20040;-69
2022/08/23 06:51:28;;;;;;;12.13;9.83;;;19.00;82.50;;;;;;4927692;29;20630;-69
2022/08/23 06:53:59;;;;;;;14.83;10.13;;;19.20;82.70;;;;;;4922086;29;20383;-69
2022/08/23 06:56:26;;;;;;;13.27;9.90;;;19.30;82.20;;;;;;4926217;29;20330;-69
2022/08/23 06:58:52;;;;;;;11.43;9.53;;;19.40;81.50;;;;;;4906215;29;20050;-69
2022/08/23 07:01:33;;;;;;;12.60;9.40;;;19.50;81.30;;;;;;4924315;29;20430;-69
2022/08/23 07:04:00;;;;;;;12.33;10.07;;;19.70;81.10;;;;;;4924083;29;20157;-69
2022/08/23 07:06:28;;;;;;;14.53;10.20;;;19.80;80.90;;;;;;4927040;29;20070;-69
2022/08/23 07:08:53;;;;;;;12.03;9.83;;;19.90;80.90;;;;;;4929290;29;20122;-69
2022/08/23 07:11:20;;;;;;;12.70;9.47;;;20.00;80.10;;;;;;4889908;29;20107;-69
2022/08/23 07:13:47;;;;;;;13.27;10.33;;;20.10;79.80;;;;;;4887719;29;20054;-69
2022/08/23 07:16:16;;;;;;;12.13;9.63;;;20.20;79.20;;;;;;4910152;29;20098;-69
2022/08/23 07:18:44;;;;;;;12.50;9.80;;;20.30;79.00;;;;;;4921951;29;20044;-69
2022/08/23 07:21:11;;;;;;;11.50;9.73;;;20.20;78.40;;;;;;4926009;29;20055;-70
2022/08/23 07:23:38;;;;;;;14.70;10.63;;;20.20;78.90;;;;;;4906233;29;20499;-70
2022/08/23 07:26:10;;;;;;;14.93;9.93;;;20.30;78.50;;;;;;4923849;29;20048;-70
2022/08/23 07:28:37;;;;;;;12.03;9.60;;;20.40;78.40;;;;;;4888002;29;20102;-70
2022/08/23 07:31:29;;;;;;;10.77;9.00;;;20.60;78.30;;;;;;4901983;29;20040;-70
2022/08/23 07:33:57;;;;;;;11.50;9.57;;;20.70;77.00;;;;;;4923914;29;20031;-70
2022/08/23 07:36:25;;;;;;;11.37;8.97;;;20.80;76.80;;;;;;4919686;29;20514;-70
2022/08/23 07:38:52;;;;;;;11.27;8.60;;;20.90;76.30;;;;;;4906848;29;20122;-70
2022/08/23 07:41:19;;;;;;;11.07;8.47;;;21.10;75.90;;;;;;4924519;29;20051;-70
2022/08/23 07:43:45;;;;;;;13.27;8.60;;;21.20;75.70;;;;;;4909907;29;20557;-70
2022/08/23 07:46:12;;;;;;;10.77;8.73;;;21.40;75.10;;;;;;4907182;29;20047;-70
2022/08/23 07:48:38;;;;;;;10.80;8.57;;;21.50;73.70;;;;;;4913687;29;20120;-70
2022/08/23 07:51:07;;;;;;;12.60;8.27;;;21.70;73.80;;;;;;4902515;29;20052;-69
2022/08/23 07:53:33;;;;;;;10.63;7.70;;;21.90;73.80;;;;;;4928419;29;20392;-70
2022/08/23 07:56:02;;;;;;;9.70;8.40;;;22.20;73.00;;;;;;4925692;29;20052;-70
2022/08/23 07:58:28;;;;;;;11.03;7.90;;;22.40;72.60;;;;;;4897955;29;20052;-70
2022/08/23 08:00:54;;;;;;;13.17;7.63;;;22.60;72.30;;;;;;4924696;29;20055;-70
2022/08/23 08:03:20;;;;;;;10.27;7.13;;;22.70;72.10;;;;;;4925531;29;20036;-70
2022/08/23 08:05:46;;;;;;;12.77;7.70;;;22.90;71.80;;;;;;4923246;29;20146;-71
2022/08/23 08:08:12;;;;;;;9.00;7.30;;;23.10;71.20;;;;;;4921893;29;20049;-70
2022/08/23 08:10:40;;;;;;;8.40;7.33;;;23.20;70.40;;;;;;4921791;29;20040;-70
2022/08/23 08:13:07;;;;;;;8.73;7.03;;;23.30;70.30;;;;;;4923475;29;20101;-70
2022/08/23 08:15:34;;;;;;;9.33;7.23;;;23.40;68.60;;;;;;4920814;29;20437;-71
2022/08/23 08:18:00;;;;;;;10.57;6.83;;;23.50;68.60;;;;;;4905380;29;20074;-71
2022/08/23 08:20:27;;;;;;;11.40;6.60;;;23.60;68.20;;;;;;4905280;29;20062;-71
2022/08/23 08:22:54;;;;;;;9.00;6.90;;;23.70;67.00;;;;;;4920120;29;20123;-70
2022/08/23 08:25:20;;;;;;;8.00;5.87;;;23.80;66.20;;;;;;4921297;29;20083;-70
2022/08/23 08:27:47;;;;;;;11.27;7.50;;;23.80;66.20;;;;;;4895129;29;20576;-71
2022/08/23 08:30:13;;;;;;;8.80;7.57;;;23.80;65.30;;;;;;4921803;29;20047;-71
2022/08/23 08:32:39;;;;;;;9.60;6.90;;;23.90;65.30;;;;;;4906087;29;20456;-71
2022/08/23 08:35:05;;;;;;;11.60;7.27;;;24.00;65.30;;;;;;4904910;29;20039;-70
2022/08/23 08:37:31;;;;;;;10.63;6.17;;;24.20;65.30;;;;;;4918160;29;20548;-71
2022/08/23 08:39:58;;;;;;;10.33;7.80;;;24.40;65.30;;;;;;4926459;29;20131;-71
2022/08/23 08:42:45;;;;;;;9.70;7.07;;;24.60;63.80;;;;;;4909389;29;20050;-71
2022/08/23 08:45:26;;;;;;;11.00;7.37;;;24.80;63.20;;;;;;4917562;29;20172;-71
2022/08/23 08:48:02;;;;;;;11.47;6.90;;;24.90;62.50;;;;;;4922355;29;20039;-71
2022/08/23 08:50:42;;;;;;;10.23;6.97;;;25.00;62.30;;;;;;4905664;29;20052;-71
2022/08/23 08:53:09;;;;;;;12.07;6.80;;;25.00;62.40;;;;;;4922722;29;20040;-71
2022/08/23 08:55:44;;;;;;;8.13;6.63;;;25.10;62.80;;;;;;4925933;29;20048;-71
2022/08/23 08:58:20;;;;;;;10.53;7.43;;;25.20;61.50;;;;;;4925132;29;20047;-71
2022/08/23 09:00:46;;;;;;;8.67;7.20;;;25.30;61.10;;;;;;4918906;29;20420;-71
2022/08/23 09:03:19;;;;;;;12.47;6.97;;;25.40;62.10;;;;;;4910368;29;20058;-71
2022/08/23 09:06:01;;;;;;;7.80;6.97;;;25.40;61.60;;;;;;4926976;29;20044;-71
2022/08/23 09:08:35;;;;;;;11.07;6.80;;;25.40;60.80;;;;;;4925863;29;20079;-71
2022/08/23 09:11:12;;;;;;;14.80;8.35;;;25.40;60.80;;;;;;4923726;29;20039;-70
2022/08/23 09:14:13;;;;;;;9.37;7.57;;;25.60;61.10;;;;;;4902255;29;20564;-71
2022/08/23 09:16:51;;;;;;;9.43;7.57;;;25.80;60.40;;;;;;4919614;28;20601;-70
2022/08/23 09:19:18;;;;;;;12.50;8.57;;;26.00;59.80;;;;;;4928615;29;20035;-71
2022/08/23 09:21:53;;;;;;;11.87;8.43;;;26.10;59.70;;;;;;4924709;29;20035;-71
2022/08/23 09:24:21;;;;;;;13.10;8.68;;;26.20;59.50;;;;;;4927893;29;20055;-71
2022/08/23 09:26:52;;;;;;;10.63;7.57;;;26.30;58.80;;;;;;4926131;29;20082;-71
2022/08/23 09:29:32;;;;;;;11.53;8.97;;;26.30;59.10;;;;;;4907639;29;20044;-71
2022/08/23 09:32:01;;;;;;;10.50;8.40;;;26.40;57.50;;;;;;4911312;29;20032;-70
2022/08/23 09:34:35;;;;;;;12.07;8.70;;;26.50;58.00;;;;;;4900904;29;20044;-71
2022/08/23 09:37:10;;;;;;;12.82;8.38;;;26.60;57.40;;;;;;4906251;29;20062;-71
2022/08/23 09:39:39;;;;;;;11.47;7.60;;;26.60;57.60;;;;;;4921807;29;20408;-71
2022/08/23 09:42:29;;;;;;;8.93;6.07;;;26.50;57.60;;;;;;4910240;29;20043;-71
2022/08/23 09:44:56;;;;;;;9.67;6.70;;;26.50;56.90;;;;;;4919901;29;20043;-70
2022/08/23 09:47:34;;;;;;;6.07;5.37;;;26.50;57.40;;;;;;4904119;29;20519;-71
2022/08/23 09:50:14;;;;;;;8.50;6.13;;;26.70;56.20;;;;;;4924912;29;20051;-70
2022/08/23 09:52:40;;;;;;;9.67;6.80;;;26.80;56.00;;;;;;4909438;29;20044;-71
2022/08/23 09:55:33;;;;;;;9.90;5.03;;;26.80;55.70;;;;;;4926865;29;20416;-72
2022/08/23 09:58:05;;;;;;;7.87;4.73;;;26.90;55.20;;;;;;4910674;29;20074;-71
2022/08/23 10:00:34;;;;;;;8.83;4.50;;;27.00;54.20;;;;;;4928694;29;20039;-71
2022/08/23 10:03:22;;;;;;;10.80;5.40;;;26.90;53.90;;;;;;4911490;28;20039;-71
2022/08/23 10:05:57;;;;;;;10.77;6.30;;;27.00;53.10;;;;;;4926245;28;20050;-71
2022/08/23 10:08:32;;;;;;;9.20;6.20;;;26.90;53.50;;;;;;4926673;29;20109;-69
2022/08/23 10:11:17;;;;;;;;;;;26.90;54.30;;;;;;4926593;29;20051;-69
2022/08/23 10:13:43;;;;;;;;;;;26.90;53.10;;;;;;4925417;29;20068;-69
2022/08/23 10:16:24;;;;;;;9.27;7.00;;;26.90;50.80;;;;;;4908995;29;20021;-69
2022/08/23 10:19:15;;;;;;;8.63;5.53;;;26.90;54.50;;;;;;4925583;29;20507;-69
2022/08/23 10:21:46;;;;;;;8.77;6.27;;;27.00;54.20;;;;;;4924857;28;20404;-69
2022/08/23 10:24:27;;;;;;;8.23;6.53;;;27.20;54.60;;;;;;4920848;29;20083;-70
2022/08/23 10:30:27;;;;;;;11.70;7.90;;;27.40;54.20;;;;;;4929468;29;20660;-69
2022/08/23 10:33:06;;;;;;;10.97;8.23;;;27.30;53.90;;;;;;4942152;29;20471;-69
2022/08/23 10:35:59;;;;;;;10.90;6.87;;;27.30;55.00;;;;;;4917483;29;20081;-69
2022/08/23 10:39:03;;;;;;;9.97;7.53;;;27.30;54.90;;;;;;4928032;28;20051;-69
2022/08/23 10:41:35;;;;;;;11.90;9.97;;;27.60;54.70;;;;;;4916097;28;20765;-69
2022/08/23 10:44:27;;;;;;;12.17;8.37;;;27.50;54.40;;;;;;4925336;29;20039;-69
2022/08/23 10:47:16;;;;;;;11.97;9.13;;;27.50;54.80;;;;;;4925939;28;20389;-69
2022/08/23 10:49:51;;;;;;;8.07;6.03;;;27.50;54.40;;;;;;4923468;28;20051;-69
2022/08/23 10:52:31;;;;;;;11.73;8.90;;;27.50;54.60;;;;;;4918597;29;20119;-69
2022/08/23 10:55:15;;;;;;;13.50;8.63;;;27.60;54.10;;;;;;4922862;28;20046;-69
2022/08/23 10:57:42;;;;;;;11.87;8.23;;;27.40;54.00;;;;;;4932167;28;20245;-69
2022/08/23 11:00:16;;;;;;;9.53;7.47;;;27.30;54.60;;;;;;4932301;29;20462;-69
2022/08/23 11:03:04;;;;;;;12.15;9.90;;;27.40;54.70;;;;;;4923299;28;20062;-70
2022/08/23 11:05:37;;;;;;;11.70;8.53;;;27.50;54.40;;;;;;4925054;28;20682;-69
2022/08/23 11:08:28;;;;;;;11.63;8.23;;;27.70;53.80;;;;;;4938753;28;20043;-69
2022/08/23 11:10:53;;;;;;;13.33;8.87;;;27.90;54.20;;;;;;4922182;29;20400;-69
2022/08/23 11:13:23;;;;;;;12.73;9.50;;;27.90;53.30;;;;;;4910007;29;20050;-69
2022/08/23 11:16:08;;;;;;;11.07;7.83;;;27.90;53.30;;;;;;4924176;28;20562;-69
2022/08/23 11:18:47;;;;;;;12.27;7.57;;;28.00;53.30;;;;;;4926890;29;20126;-69
2022/08/23 11:21:16;;;;;;;11.63;7.50;;;28.20;52.90;;;;;;4921888;29;20094;-69
2022/08/23 11:24:11;;;;;;;12.67;8.40;;;28.20;53.20;;;;;;4904896;28;20087;-69
2022/08/23 11:26:38;;;;;;;13.07;8.48;;;28.00;53.40;;;;;;4925459;29;20102;-69
2022/08/23 11:29:09;;;;;;;10.43;8.17;;;28.10;53.20;;;;;;4911479;29;20102;-70
2022/08/23 11:31:48;;;;;;;10.27;7.70;;;28.10;51.80;;;;;;4915326;29;20058;-69
2022/08/23 11:34:27;;;;;;;12.63;8.70;;;28.30;51.90;;;;;;4923777;29;20058;-70
2022/08/23 11:37:17;;;;;;;11.90;9.40;;;28.40;52.60;;;;;;4910825;28;20043;-70
2022/08/23 11:39:58;;;;;;;9.10;7.37;;;28.30;51.00;;;;;;4929097;29;20047;-70
2022/08/23 11:42:49;;;;;;;8.97;7.83;;;28.40;51.90;;;;;;4904223;28;20051;-70
2022/08/23 11:45:26;;;;;;;14.57;9.47;;;28.40;52.10;;;;;;4927241;29;20542;-70
2022/08/23 11:48:12;;;;;;;10.53;8.47;;;28.40;51.90;;;;;;4906102;29;20520;-70
2022/08/23 11:50:51;;;;;;;10.93;8.50;;;28.50;52.20;;;;;;4938384;28;20051;-70
2022/08/23 11:53:43;;;;;;;13.40;8.30;;;28.60;51.80;;;;;;4911903;28;20087;-70
2022/08/23 11:56:34;;;;;;;11.57;7.03;;;28.80;51.30;;;;;;4946112;28;20055;-69
2022/08/23 11:59:19;;;;;;;9.87;6.03;;;29.00;52.00;;;;;;4894018;28;20049;-70
2022/08/23 12:01:45;;;;;;;7.82;5.60;;;29.20;50.10;;;;;;4927274;29;20082;-70
2022/08/23 12:04:52;;;;;;;8.57;5.97;;;29.40;48.90;;;;;;4928240;28;20036;-70
2022/08/23 12:07:51;;;;;;;7.37;5.73;;;29.50;47.70;;;;;;4924621;29;20456;-70
2022/08/23 12:10:42;;;;;;;10.60;6.47;;;29.50;49.10;;;;;;4908985;29;20075;-70
2022/08/23 12:13:20;;;;;;;10.90;6.80;;;29.40;50.20;;;;;;4914257;29;20031;-70
2022/08/23 12:16:08;;;;;;;12.20;7.33;;;29.20;50.20;;;;;;4917751;28;20483;-70
2022/08/23 12:18:54;;;;;;;7.77;6.13;;;29.10;49.80;;;;;;4923324;29;20089;-70
2022/08/23 12:21:26;;;;;;;8.40;6.83;;;29.20;49.90;;;;;;4915306;28;20036;-70
2022/08/23 12:24:17;;;;;;;11.37;7.23;;;29.40;50.40;;;;;;4918664;28;20062;-70
2022/08/23 12:27:06;;;;;;;9.67;7.40;;;29.50;50.20;;;;;;4896904;29;20491;-70
2022/08/23 12:29:56;;;;;;;7.20;6.13;;;29.50;49.80;;;;;;4920280;29;20411;-70
2022/08/23 12:32:33;;;;;;;9.57;6.87;;;29.60;49.40;;;;;;4920310;28;20043;-70
2022/08/23 12:35:08;;;;;;;10.67;6.50;;;29.40;48.70;;;;;;4909233;29;20050;-70
2022/08/23 12:37:44;;;;;;;9.93;6.27;;;29.30;49.10;;;;;;4920090;29;20134;-70
2022/08/23 12:40:24;;;;;;;12.53;7.43;;;29.20;49.50;;;;;;4943139;28;20043;-70
2022/08/23 12:43:09;;;;;;;9.60;6.40;;;29.10;48.70;;;;;;4944810;28;20101;-70
2022/08/23 12:45:38;;;;;;;10.77;6.60;;;29.20;49.20;;;;;;4922379;29;20069;-70
2022/08/23 12:48:09;;;;;;;9.43;5.70;;;29.10;49.10;;;;;;4922614;28;20098;-70
2022/08/23 12:50:39;;;;;;;12.03;5.93;;;29.10;50.10;;;;;;4920798;29;20043;-69
2022/08/23 12:53:09;;;;;;;7.60;5.67;;;29.20;49.20;;;;;;4922892;28;20035;-70
2022/08/23 12:55:48;;;;;;;7.33;4.63;;;29.30;48.80;;;;;;4924777;29;20091;-70
2022/08/23 12:58:16;;;;;;;9.93;4.87;;;29.40;48.30;;;;;;4924520;28;20473;-69
2022/08/23 13:00:54;;;;;;;8.17;4.73;;;29.60;48.20;;;;;;4922547;29;20054;-70
2022/08/23 13:03:53;;;;;;;9.43;4.80;;;29.80;47.30;;;;;;4925092;29;20058;-70
2022/08/23 13:06:23;;;;;;;6.40;3.37;;;29.90;47.40;;;;;;4921095;29;20060;-70
2022/08/23 13:09:24;;;;;;;7.20;3.10;;;29.90;44.90;;;;;;4926294;28;20079;-70
2022/08/23 13:11:51;;;;;;;6.13;2.60;;;29.70;43.60;;;;;;4913270;29;20040;-70
2022/08/23 13:14:38;;;;;;;6.73;3.00;;;29.70;45.10;;;;;;4909258;29;20086;-70
2022/08/23 13:17:25;;;;;;;7.30;3.50;;;29.80;45.50;;;;;;4915546;28;20042;-70